SPTN/TCQ METAR and TAF weather

Enter ICAO airport designator
Station Type Date Time Source
SPTN METAR 2019/04/18 11:00 UTC NOAA

SPTN 181100Z 21002KT 9999 OVC040 17/14 Q1013 RMK PP000


Station Type Date Time Source
SPTN Decoded METAR 2019/04/18 11:00 UTC NOAA

Tacna, Peru (SPTN) 18-04S 070-18W 469M
Apr 18, 2019 - 07:00 AM EDT / 2019.04.18 1100 UTC
Wind: from the SSW (210 degrees) at 2 MPH (2 KT):0
Visibility: greater than 7 mile(s):0
Sky conditions: overcast
Temperature: 62 F (17 C)
Dew Point: 57 F (14 C)
Relative Humidity: 82%
Pressure (altimeter): 29.91 in. Hg (1013 hPa)
ob: SPTN 181100Z 21002KT 9999 OVC040 17/14 Q1013 RMK PP000
cycle: 11

Station Type Date Time Source
SPTN TAF 2019/04/18 06:33 UTC NOAA

TAF TAF SPTN 180500Z 1806/1906 21006KT 9999 BKN030 TX24/1819Z TN16/1811Z
FM181100 VRB03KT 9999 SCT030
BECMG 1815/1818 21010KT CAVOK
BECMG 1823/1901 23005KT BKN040

Example: see airport list